sensor_id;sensor_type;location;lat;lon;timestamp;P1;durP1;ratioP1;P2;durP2;ratioP2
16320;SDS011;8269;50.990;4.494;2022-10-30T00:00:22;22.38;;;12.95;;
16320;SDS011;8269;50.990;4.494;2022-10-30T00:02:48;25.75;;;13.02;;
16320;SDS011;8269;50.990;4.494;2022-10-30T00:05:14;25.33;;;13.20;;
16320;SDS011;8269;50.990;4.494;2022-10-30T00:07:39;21.08;;;12.27;;
16320;SDS011;8269;50.990;4.494;2022-10-30T00:10:05;23.27;;;12.45;;
16320;SDS011;8269;50.990;4.494;2022-10-30T00:12:31;20.85;;;12.30;;
16320;SDS011;8269;50.990;4.494;2022-10-30T00:14:56;19.25;;;11.40;;
16320;SDS011;8269;50.990;4.494;2022-10-30T00:17:22;23.38;;;11.40;;
16320;SDS011;8269;50.990;4.494;2022-10-30T00:19:48;18.85;;;11.20;;
16320;SDS011;8269;50.990;4.494;2022-10-30T00:22:13;26.40;;;11.88;;
16320;SDS011;8269;50.990;4.494;2022-10-30T00:24:39;17.23;;;11.65;;
16320;SDS011;8269;50.990;4.494;2022-10-30T00:27:04;24.25;;;12.43;;
16320;SDS011;8269;50.990;4.494;2022-10-30T00:29:30;22.58;;;11.38;;
16320;SDS011;8269;50.990;4.494;2022-10-30T00:31:56;19.10;;;10.98;;
16320;SDS011;8269;50.990;4.494;2022-10-30T00:34:21;18.33;;;10.73;;
16320;SDS011;8269;50.990;4.494;2022-10-30T00:36:47;18.00;;;10.50;;
16320;SDS011;8269;50.990;4.494;2022-10-30T00:39:12;16.50;;;10.48;;
16320;SDS011;8269;50.990;4.494;2022-10-30T00:41:38;24.70;;;11.05;;
16320;SDS011;8269;50.990;4.494;2022-10-30T00:47:04;20.23;;;10.65;;
16320;SDS011;8269;50.990;4.494;2022-10-30T00:49:37;20.35;;;11.65;;
16320;SDS011;8269;50.990;4.494;2022-10-30T00:52:11;17.52;;;10.75;;
16320;SDS011;8269;50.990;4.494;2022-10-30T00:54:36;25.00;;;12.63;;
16320;SDS011;8269;50.990;4.494;2022-10-30T00:57:03;22.45;;;12.05;;
16320;SDS011;8269;50.990;4.494;2022-10-30T00:59:31;20.42;;;11.52;;
16320;SDS011;8269;50.990;4.494;2022-10-30T01:02:00;19.05;;;11.90;;
16320;SDS011;8269;50.990;4.494;2022-10-30T01:04:27;19.90;;;11.13;;
16320;SDS011;8269;50.990;4.494;2022-10-30T01:06:54;19.00;;;10.68;;
16320;SDS011;8269;50.990;4.494;2022-10-30T01:09:20;20.80;;;10.55;;
16320;SDS011;8269;50.990;4.494;2022-10-30T01:11:47;19.67;;;10.70;;
16320;SDS011;8269;50.990;4.494;2022-10-30T01:14:13;23.05;;;11.25;;
16320;SDS011;8269;50.990;4.494;2022-10-30T01:16:57;16.47;;;10.07;;
16320;SDS011;8269;50.990;4.494;2022-10-30T01:19:51;18.70;;;9.17;;
16320;SDS011;8269;50.990;4.494;2022-10-30T01:28:19;17.02;;;9.40;;
16320;SDS011;8269;50.990;4.494;2022-10-30T01:31:16;18.52;;;10.07;;
16320;SDS011;8269;50.990;4.494;2022-10-30T01:36:32;16.75;;;10.07;;
16320;SDS011;8269;50.990;4.494;2022-10-30T01:39:10;18.40;;;10.55;;
16320;SDS011;8269;50.990;4.494;2022-10-30T01:41:38;19.95;;;10.57;;
16320;SDS011;8269;50.990;4.494;2022-10-30T01:44:08;21.50;;;10.90;;
16320;SDS011;8269;50.990;4.494;2022-10-30T01:46:41;19.13;;;11.23;;
16320;SDS011;8269;50.990;4.494;2022-10-30T01:55:06;20.48;;;11.57;;
16320;SDS011;8269;50.990;4.494;2022-10-30T02:00:24;24.70;;;12.43;;
16320;SDS011;8269;50.990;4.494;2022-10-30T02:02:50;18.97;;;11.63;;
16320;SDS011;8269;50.990;4.494;2022-10-30T02:05:19;23.08;;;11.70;;
16320;SDS011;8269;50.990;4.494;2022-10-30T02:07:55;24.75;;;12.40;;
16320;SDS011;8269;50.990;4.494;2022-10-30T02:10:21;22.77;;;12.23;;
16320;SDS011;8269;50.990;4.494;2022-10-30T02:12:47;22.00;;;12.60;;
16320;SDS011;8269;50.990;4.494;2022-10-30T02:15:12;25.48;;;12.68;;
16320;SDS011;8269;50.990;4.494;2022-10-30T02:17:38;24.67;;;13.17;;
16320;SDS011;8269;50.990;4.494;2022-10-30T02:20:05;24.50;;;13.23;;
16320;SDS011;8269;50.990;4.494;2022-10-30T02:22:31;23.90;;;13.07;;
16320;SDS011;8269;50.990;4.494;2022-10-30T02:24:57;22.15;;;13.25;;
16320;SDS011;8269;50.990;4.494;2022-10-30T02:27:22;21.20;;;13.90;;
16320;SDS011;8269;50.990;4.494;2022-10-30T02:29:48;20.20;;;13.37;;
16320;SDS011;8269;50.990;4.494;2022-10-30T02:32:13;26.75;;;15.05;;
16320;SDS011;8269;50.990;4.494;2022-10-30T02:34:39;26.53;;;14.90;;
16320;SDS011;8269;50.990;4.494;2022-10-30T02:37:04;22.40;;;13.32;;
16320;SDS011;8269;50.990;4.494;2022-10-30T02:39:30;20.17;;;12.57;;
16320;SDS011;8269;50.990;4.494;2022-10-30T02:41:55;21.10;;;12.00;;
16320;SDS011;8269;50.990;4.494;2022-10-30T02:44:21;23.20;;;12.15;;
16320;SDS011;8269;50.990;4.494;2022-10-30T02:46:47;20.73;;;11.80;;
16320;SDS011;8269;50.990;4.494;2022-10-30T02:49:12;19.88;;;11.38;;
16320;SDS011;8269;50.990;4.494;2022-10-30T02:51:38;20.33;;;11.10;;
16320;SDS011;8269;50.990;4.494;2022-10-30T02:54:03;19.48;;;11.95;;
16320;SDS011;8269;50.990;4.494;2022-10-30T02:56:29;19.88;;;11.77;;
16320;SDS011;8269;50.990;4.494;2022-10-30T02:58:55;18.42;;;10.60;;
16320;SDS011;8269;50.990;4.494;2022-10-30T03:01:21;18.55;;;10.43;;
16320;SDS011;8269;50.990;4.494;2022-10-30T03:03:46;17.45;;;10.23;;
16320;SDS011;8269;50.990;4.494;2022-10-30T03:06:13;17.37;;;10.30;;
16320;SDS011;8269;50.990;4.494;2022-10-30T03:08:40;18.30;;;10.20;;
16320;SDS011;8269;50.990;4.494;2022-10-30T03:11:08;18.10;;;10.55;;
16320;SDS011;8269;50.990;4.494;2022-10-30T03:13:41;18.50;;;10.20;;
16320;SDS011;8269;50.990;4.494;2022-10-30T03:16:12;18.10;;;10.25;;
16320;SDS011;8269;50.990;4.494;2022-10-30T03:18:39;16.40;;;10.37;;
16320;SDS011;8269;50.990;4.494;2022-10-30T03:21:06;19.55;;;10.70;;
16320;SDS011;8269;50.990;4.494;2022-10-30T03:23:34;18.85;;;10.05;;
16320;SDS011;8269;50.990;4.494;2022-10-30T03:26:00;19.93;;;9.97;;
16320;SDS011;8269;50.990;4.494;2022-10-30T03:28:27;17.55;;;10.32;;
16320;SDS011;8269;50.990;4.494;2022-10-30T03:30:57;17.60;;;9.98;;
16320;SDS011;8269;50.990;4.494;2022-10-30T03:33:27;16.77;;;9.90;;
16320;SDS011;8269;50.990;4.494;2022-10-30T03:35:52;18.33;;;9.07;;
16320;SDS011;8269;50.990;4.494;2022-10-30T03:38:18;16.10;;;9.60;;
16320;SDS011;8269;50.990;4.494;2022-10-30T03:40:44;18.73;;;10.10;;
16320;SDS011;8269;50.990;4.494;2022-10-30T03:43:09;18.07;;;10.20;;
16320;SDS011;8269;50.990;4.494;2022-10-30T03:45:35;18.43;;;10.77;;
16320;SDS011;8269;50.990;4.494;2022-10-30T03:48:01;21.17;;;11.18;;
16320;SDS011;8269;50.990;4.494;2022-10-30T03:50:28;21.10;;;10.82;;
16320;SDS011;8269;50.990;4.494;2022-10-30T03:52:54;20.90;;;11.20;;
16320;SDS011;8269;50.990;4.494;2022-10-30T03:55:21;21.30;;;11.93;;
16320;SDS011;8269;50.990;4.494;2022-10-30T03:57:47;17.90;;;10.60;;
16320;SDS011;8269;50.990;4.494;2022-10-30T04:00:13;17.40;;;10.52;;
16320;SDS011;8269;50.990;4.494;2022-10-30T04:02:49;22.80;;;10.93;;
16320;SDS011;8269;50.990;4.494;2022-10-30T04:05:19;19.73;;;10.60;;
16320;SDS011;8269;50.990;4.494;2022-10-30T04:07:46;15.83;;;10.67;;
16320;SDS011;8269;50.990;4.494;2022-10-30T04:10:11;19.13;;;10.57;;
16320;SDS011;8269;50.990;4.494;2022-10-30T04:12:38;21.13;;;10.67;;
16320;SDS011;8269;50.990;4.494;2022-10-30T04:15:04;18.60;;;10.50;;
16320;SDS011;8269;50.990;4.494;2022-10-30T04:17:31;18.30;;;9.95;;
16320;SDS011;8269;50.990;4.494;2022-10-30T04:19:57;16.73;;;9.90;;
16320;SDS011;8269;50.990;4.494;2022-10-30T04:22:23;15.87;;;9.87;;
16320;SDS011;8269;50.990;4.494;2022-10-30T04:24:48;19.27;;;10.50;;
16320;SDS011;8269;50.990;4.494;2022-10-30T04:27:14;17.17;;;10.60;;
16320;SDS011;8269;50.990;4.494;2022-10-30T04:29:40;19.27;;;9.73;;
16320;SDS011;8269;50.990;4.494;2022-10-30T04:32:06;15.13;;;9.90;;
16320;SDS011;8269;50.990;4.494;2022-10-30T04:34:32;17.63;;;10.27;;
16320;SDS011;8269;50.990;4.494;2022-10-30T04:36:58;21.92;;;10.02;;
16320;SDS011;8269;50.990;4.494;2022-10-30T04:39:24;19.20;;;9.83;;
16320;SDS011;8269;50.990;4.494;2022-10-30T04:41:50;18.67;;;9.20;;
16320;SDS011;8269;50.990;4.494;2022-10-30T04:44:15;16.35;;;9.65;;
16320;SDS011;8269;50.990;4.494;2022-10-30T04:46:41;16.50;;;8.93;;
16320;SDS011;8269;50.990;4.494;2022-10-30T04:49:07;17.38;;;9.43;;
16320;SDS011;8269;50.990;4.494;2022-10-30T04:51:32;16.67;;;9.40;;
16320;SDS011;8269;50.990;4.494;2022-10-30T04:53:58;21.25;;;10.13;;
16320;SDS011;8269;50.990;4.494;2022-10-30T04:56:24;12.65;;;9.25;;
16320;SDS011;8269;50.990;4.494;2022-10-30T04:58:49;17.05;;;10.35;;
16320;SDS011;8269;50.990;4.494;2022-10-30T05:01:15;22.33;;;10.68;;
16320;SDS011;8269;50.990;4.494;2022-10-30T05:03:40;14.23;;;9.50;;
16320;SDS011;8269;50.990;4.494;2022-10-30T05:06:10;14.75;;;9.88;;
16320;SDS011;8269;50.990;4.494;2022-10-30T05:08:47;17.83;;;9.30;;
16320;SDS011;8269;50.990;4.494;2022-10-30T05:11:14;21.95;;;10.25;;
16320;SDS011;8269;50.990;4.494;2022-10-30T05:13:40;17.93;;;9.43;;
16320;SDS011;8269;50.990;4.494;2022-10-30T05:16:05;15.63;;;9.83;;
16320;SDS011;8269;50.990;4.494;2022-10-30T05:18:31;21.27;;;10.18;;
16320;SDS011;8269;50.990;4.494;2022-10-30T05:20:57;18.45;;;10.48;;
16320;SDS011;8269;50.990;4.494;2022-10-30T05:23:23;20.17;;;10.40;;
16320;SDS011;8269;50.990;4.494;2022-10-30T05:25:48;19.67;;;10.13;;
16320;SDS011;8269;50.990;4.494;2022-10-30T05:28:14;17.03;;;10.10;;
16320;SDS011;8269;50.990;4.494;2022-10-30T05:30:40;17.13;;;9.53;;
16320;SDS011;8269;50.990;4.494;2022-10-30T05:33:08;17.60;;;10.03;;
16320;SDS011;8269;50.990;4.494;2022-10-30T05:35:36;17.23;;;9.13;;
16320;SDS011;8269;50.990;4.494;2022-10-30T05:38:02;18.00;;;9.40;;
16320;SDS011;8269;50.990;4.494;2022-10-30T05:40:29;17.90;;;10.10;;
16320;SDS011;8269;50.990;4.494;2022-10-30T05:42:56;17.93;;;10.00;;
16320;SDS011;8269;50.990;4.494;2022-10-30T05:45:22;21.43;;;9.77;;
16320;SDS011;8269;50.990;4.494;2022-10-30T05:48:00;19.57;;;10.43;;
16320;SDS011;8269;50.990;4.494;2022-10-30T05:50:28;17.20;;;10.27;;
16320;SDS011;8269;50.990;4.494;2022-10-30T05:52:54;17.67;;;9.70;;
16320;SDS011;8269;50.990;4.494;2022-10-30T05:55:24;18.37;;;9.63;;
16320;SDS011;8269;50.990;4.494;2022-10-30T05:58:01;18.63;;;9.75;;
16320;SDS011;8269;50.990;4.494;2022-10-30T06:00:30;16.97;;;10.30;;
16320;SDS011;8269;50.990;4.494;2022-10-30T06:02:59;16.97;;;10.30;;
16320;SDS011;8269;50.990;4.494;2022-10-30T06:05:25;17.77;;;10.20;;
16320;SDS011;8269;50.990;4.494;2022-10-30T06:07:54;19.03;;;10.33;;
16320;SDS011;8269;50.990;4.494;2022-10-30T06:10:20;17.73;;;10.73;;
16320;SDS011;8269;50.990;4.494;2022-10-30T06:12:53;21.30;;;10.20;;
16320;SDS011;8269;50.990;4.494;2022-10-30T06:15:22;18.20;;;11.13;;
16320;SDS011;8269;50.990;4.494;2022-10-30T06:17:48;17.13;;;10.17;;
16320;SDS011;8269;50.990;4.494;2022-10-30T06:20:15;20.30;;;10.87;;
16320;SDS011;8269;50.990;4.494;2022-10-30T06:22:41;18.43;;;9.87;;
16320;SDS011;8269;50.990;4.494;2022-10-30T06:25:20;19.20;;;10.30;;
16320;SDS011;8269;50.990;4.494;2022-10-30T06:27:46;21.20;;;10.60;;
16320;SDS011;8269;50.990;4.494;2022-10-30T06:30:11;17.83;;;10.53;;
16320;SDS011;8269;50.990;4.494;2022-10-30T06:32:37;15.37;;;10.37;;
16320;SDS011;8269;50.990;4.494;2022-10-30T06:35:03;15.40;;;9.93;;
16320;SDS011;8269;50.990;4.494;2022-10-30T06:37:28;20.70;;;10.47;;
16320;SDS011;8269;50.990;4.494;2022-10-30T06:39:54;17.10;;;10.47;;
16320;SDS011;8269;50.990;4.494;2022-10-30T06:42:20;19.43;;;10.40;;
16320;SDS011;8269;50.990;4.494;2022-10-30T06:44:45;18.63;;;11.50;;
16320;SDS011;8269;50.990;4.494;2022-10-30T06:47:12;18.37;;;10.37;;
16320;SDS011;8269;50.990;4.494;2022-10-30T06:49:39;20.93;;;10.80;;
16320;SDS011;8269;50.990;4.494;2022-10-30T06:52:04;21.00;;;11.17;;
16320;SDS011;8269;50.990;4.494;2022-10-30T06:54:30;19.20;;;11.03;;
16320;SDS011;8269;50.990;4.494;2022-10-30T06:56:56;18.63;;;11.07;;
16320;SDS011;8269;50.990;4.494;2022-10-30T06:59:21;17.63;;;12.43;;
16320;SDS011;8269;50.990;4.494;2022-10-30T07:01:47;17.70;;;12.27;;
16320;SDS011;8269;50.990;4.494;2022-10-30T07:04:12;22.33;;;12.73;;
16320;SDS011;8269;50.990;4.494;2022-10-30T07:06:38;16.50;;;11.90;;
16320;SDS011;8269;50.990;4.494;2022-10-30T07:09:03;18.57;;;12.00;;
16320;SDS011;8269;50.990;4.494;2022-10-30T07:11:29;18.90;;;11.23;;
16320;SDS011;8269;50.990;4.494;2022-10-30T07:13:54;20.43;;;11.60;;
16320;SDS011;8269;50.990;4.494;2022-10-30T07:16:20;19.30;;;11.18;;
16320;SDS011;8269;50.990;4.494;2022-10-30T07:18:45;18.27;;;10.85;;
16320;SDS011;8269;50.990;4.494;2022-10-30T07:21:11;19.35;;;11.00;;
16320;SDS011;8269;50.990;4.494;2022-10-30T07:23:37;19.10;;;10.43;;
16320;SDS011;8269;50.990;4.494;2022-10-30T07:26:02;17.27;;;10.05;;
16320;SDS011;8269;50.990;4.494;2022-10-30T07:28:28;18.73;;;10.10;;
16320;SDS011;8269;50.990;4.494;2022-10-30T07:30:56;16.63;;;9.68;;
16320;SDS011;8269;50.990;4.494;2022-10-30T07:33:22;19.17;;;10.20;;
16320;SDS011;8269;50.990;4.494;2022-10-30T07:35:48;16.60;;;9.88;;
16320;SDS011;8269;50.990;4.494;2022-10-30T07:38:13;16.77;;;10.00;;
16320;SDS011;8269;50.990;4.494;2022-10-30T07:40:39;18.37;;;10.20;;
16320;SDS011;8269;50.990;4.494;2022-10-30T07:43:04;19.58;;;10.77;;
16320;SDS011;8269;50.990;4.494;2022-10-30T07:45:30;17.73;;;11.07;;
16320;SDS011;8269;50.990;4.494;2022-10-30T07:47:56;17.63;;;10.13;;
16320;SDS011;8269;50.990;4.494;2022-10-30T07:50:22;39.72;;;13.48;;
16320;SDS011;8269;50.990;4.494;2022-10-30T07:52:48;20.08;;;10.77;;
16320;SDS011;8269;50.990;4.494;2022-10-30T07:55:14;21.60;;;10.75;;
16320;SDS011;8269;50.990;4.494;2022-10-30T07:57:40;19.92;;;10.55;;
16320;SDS011;8269;50.990;4.494;2022-10-30T08:00:07;14.75;;;9.73;;
16320;SDS011;8269;50.990;4.494;2022-10-30T08:02:35;16.92;;;10.95;;
16320;SDS011;8269;50.990;4.494;2022-10-30T08:05:02;18.02;;;10.27;;
16320;SDS011;8269;50.990;4.494;2022-10-30T08:07:29;16.88;;;9.93;;
16320;SDS011;8269;50.990;4.494;2022-10-30T08:09:55;15.02;;;9.93;;
16320;SDS011;8269;50.990;4.494;2022-10-30T08:12:21;21.30;;;10.02;;
16320;SDS011;8269;50.990;4.494;2022-10-30T08:14:46;17.23;;;9.95;;
16320;SDS011;8269;50.990;4.494;2022-10-30T08:17:13;16.88;;;9.43;;
16320;SDS011;8269;50.990;4.494;2022-10-30T08:19:38;15.35;;;9.23;;
16320;SDS011;8269;50.990;4.494;2022-10-30T08:22:04;14.25;;;8.60;;
16320;SDS011;8269;50.990;4.494;2022-10-30T08:24:30;16.63;;;8.13;;
16320;SDS011;8269;50.990;4.494;2022-10-30T08:26:56;21.52;;;8.82;;
16320;SDS011;8269;50.990;4.494;2022-10-30T08:29:21;17.65;;;8.13;;
16320;SDS011;8269;50.990;4.494;2022-10-30T08:31:47;15.57;;;8.35;;
16320;SDS011;8269;50.990;4.494;2022-10-30T08:34:13;17.48;;;8.50;;
16320;SDS011;8269;50.990;4.494;2022-10-30T08:36:39;12.32;;;7.88;;
16320;SDS011;8269;50.990;4.494;2022-10-30T08:39:04;17.13;;;8.55;;
16320;SDS011;8269;50.990;4.494;2022-10-30T08:41:30;15.02;;;8.23;;
16320;SDS011;8269;50.990;4.494;2022-10-30T08:43:55;20.38;;;9.23;;
16320;SDS011;8269;50.990;4.494;2022-10-30T08:46:21;15.82;;;8.88;;
16320;SDS011;8269;50.990;4.494;2022-10-30T08:48:46;18.98;;;9.05;;
16320;SDS011;8269;50.990;4.494;2022-10-30T08:51:12;19.55;;;9.27;;
16320;SDS011;8269;50.990;4.494;2022-10-30T08:53:38;19.92;;;8.40;;
16320;SDS011;8269;50.990;4.494;2022-10-30T08:56:03;16.90;;;8.70;;
16320;SDS011;8269;50.990;4.494;2022-10-30T08:58:29;17.13;;;8.90;;
16320;SDS011;8269;50.990;4.494;2022-10-30T09:00:55;19.15;;;8.85;;
16320;SDS011;8269;50.990;4.494;2022-10-30T09:03:21;19.17;;;9.23;;
16320;SDS011;8269;50.990;4.494;2022-10-30T09:05:46;15.05;;;8.75;;
16320;SDS011;8269;50.990;4.494;2022-10-30T09:08:12;18.33;;;8.98;;
16320;SDS011;8269;50.990;4.494;2022-10-30T09:10:37;16.17;;;9.02;;
16320;SDS011;8269;50.990;4.494;2022-10-30T09:13:03;17.27;;;9.10;;
16320;SDS011;8269;50.990;4.494;2022-10-30T09:15:29;17.15;;;9.50;;
16320;SDS011;8269;50.990;4.494;2022-10-30T09:17:58;17.92;;;9.93;;
16320;SDS011;8269;50.990;4.494;2022-10-30T09:20:25;21.10;;;9.55;;
16320;SDS011;8269;50.990;4.494;2022-10-30T09:22:51;20.52;;;9.40;;
16320;SDS011;8269;50.990;4.494;2022-10-30T09:25:17;20.15;;;10.02;;
16320;SDS011;8269;50.990;4.494;2022-10-30T09:27:43;16.45;;;9.13;;
16320;SDS011;8269;50.990;4.494;2022-10-30T09:30:09;19.23;;;9.48;;
16320;SDS011;8269;50.990;4.494;2022-10-30T09:32:35;18.88;;;9.10;;
16320;SDS011;8269;50.990;4.494;2022-10-30T09:35:01;18.00;;;9.90;;
16320;SDS011;8269;50.990;4.494;2022-10-30T09:37:27;17.52;;;8.65;;
16320;SDS011;8269;50.990;4.494;2022-10-30T09:39:52;16.25;;;8.90;;
16320;SDS011;8269;50.990;4.494;2022-10-30T09:42:28;23.80;;;9.63;;
16320;SDS011;8269;50.990;4.494;2022-10-30T09:50:35;22.10;;;9.98;;
16320;SDS011;8269;50.990;4.494;2022-10-30T09:55:46;19.83;;;9.15;;
16320;SDS011;8269;50.990;4.494;2022-10-30T10:01:11;22.33;;;10.27;;
16320;SDS011;8269;50.990;4.494;2022-10-30T10:06:30;21.48;;;10.13;;
16320;SDS011;8269;50.990;4.494;2022-10-30T10:12:02;20.60;;;10.32;;
16320;SDS011;8269;50.990;4.494;2022-10-30T10:14:33;20.42;;;10.68;;
16320;SDS011;8269;50.990;4.494;2022-10-30T10:17:01;21.88;;;9.80;;
16320;SDS011;8269;50.990;4.494;2022-10-30T10:19:48;22.33;;;10.05;;
16320;SDS011;8269;50.990;4.494;2022-10-30T10:25:22;22.60;;;10.48;;
16320;SDS011;8269;50.990;4.494;2022-10-30T10:30:25;20.73;;;10.25;;
16320;SDS011;8269;50.990;4.494;2022-10-30T10:33:19;22.90;;;10.98;;
16320;SDS011;8269;50.990;4.494;2022-10-30T10:41:31;26.20;;;11.55;;
16320;SDS011;8269;50.990;4.494;2022-10-30T10:47:34;24.50;;;10.93;;
16320;SDS011;8269;50.990;4.494;2022-10-30T10:53:06;21.95;;;10.77;;
16320;SDS011;8269;50.990;4.494;2022-10-30T10:55:36;21.45;;;10.57;;
16320;SDS011;8269;50.990;4.494;2022-10-30T10:58:22;19.48;;;10.10;;
16320;SDS011;8269;50.990;4.494;2022-10-30T11:01:02;20.67;;;10.68;;
16320;SDS011;8269;50.990;4.494;2022-10-30T11:08:41;26.00;;;10.73;;
16320;SDS011;8269;50.990;4.494;2022-10-30T11:11:07;22.63;;;9.68;;
16320;SDS011;8269;50.990;4.494;2022-10-30T11:13:37;21.45;;;10.65;;
16320;SDS011;8269;50.990;4.494;2022-10-30T11:18:54;19.67;;;10.07;;
16320;SDS011;8269;50.990;4.494;2022-10-30T11:21:24;21.48;;;9.23;;
16320;SDS011;8269;50.990;4.494;2022-10-30T11:23:51;26.80;;;11.38;;
16320;SDS011;8269;50.990;4.494;2022-10-30T11:28:52;17.48;;;8.68;;
16320;SDS011;8269;50.990;4.494;2022-10-30T11:31:28;18.30;;;8.95;;
16320;SDS011;8269;50.990;4.494;2022-10-30T11:34:14;19.42;;;8.45;;
16320;SDS011;8269;50.990;4.494;2022-10-30T11:36:49;19.83;;;8.70;;
16320;SDS011;8269;50.990;4.494;2022-10-30T11:39:21;19.27;;;7.97;;
16320;SDS011;8269;50.990;4.494;2022-10-30T11:44:22;21.08;;;8.63;;
16320;SDS011;8269;50.990;4.494;2022-10-30T11:46:50;15.93;;;8.05;;
16320;SDS011;8269;50.990;4.494;2022-10-30T11:49:23;16.52;;;7.88;;
16320;SDS011;8269;50.990;4.494;2022-10-30T11:51:52;17.33;;;7.70;;
16320;SDS011;8269;50.990;4.494;2022-10-30T11:54:19;16.92;;;7.57;;
16320;SDS011;8269;50.990;4.494;2022-10-30T11:56:49;15.40;;;7.93;;
16320;SDS011;8269;50.990;4.494;2022-10-30T11:59:18;16.55;;;8.40;;
16320;SDS011;8269;50.990;4.494;2022-10-30T12:02:03;16.00;;;8.80;;
16320;SDS011;8269;50.990;4.494;2022-10-30T12:04:48;17.02;;;7.88;;
16320;SDS011;8269;50.990;4.494;2022-10-30T12:07:19;16.85;;;7.47;;
16320;SDS011;8269;50.990;4.494;2022-10-30T12:09:49;17.70;;;7.72;;
16320;SDS011;8269;50.990;4.494;2022-10-30T12:12:22;17.00;;;7.90;;
16320;SDS011;8269;50.990;4.494;2022-10-30T12:17:58;16.60;;;7.68;;
16320;SDS011;8269;50.990;4.494;2022-10-30T12:20:26;17.35;;;7.68;;
16320;SDS011;8269;50.990;4.494;2022-10-30T12:22:52;18.27;;;7.93;;
16320;SDS011;8269;50.990;4.494;2022-10-30T12:27:48;19.13;;;7.45;;
16320;SDS011;8269;50.990;4.494;2022-10-30T12:32:44;17.27;;;7.43;;
16320;SDS011;8269;50.990;4.494;2022-10-30T12:35:35;16.15;;;7.65;;
16320;SDS011;8269;50.990;4.494;2022-10-30T12:38:00;15.60;;;7.70;;
16320;SDS011;8269;50.990;4.494;2022-10-30T12:40:30;19.08;;;7.45;;
16320;SDS011;8269;50.990;4.494;2022-10-30T12:43:11;13.63;;;7.38;;
16320;SDS011;8269;50.990;4.494;2022-10-30T12:45:44;15.20;;;7.32;;
16320;SDS011;8269;50.990;4.494;2022-10-30T12:51:18;16.27;;;6.60;;
16320;SDS011;8269;50.990;4.494;2022-10-30T12:54:16;18.27;;;7.32;;
16320;SDS011;8269;50.990;4.494;2022-10-30T12:56:47;15.63;;;6.55;;
16320;SDS011;8269;50.990;4.494;2022-10-30T13:02:43;14.60;;;6.57;;
16320;SDS011;8269;50.990;4.494;2022-10-30T13:13:36;17.75;;;10.48;;
16320;SDS011;8269;50.990;4.494;2022-10-30T13:16:07;17.15;;;6.78;;
16320;SDS011;8269;50.990;4.494;2022-10-30T13:18:38;13.18;;;6.10;;
16320;SDS011;8269;50.990;4.494;2022-10-30T13:26:21;13.60;;;6.43;;
16320;SDS011;8269;50.990;4.494;2022-10-30T13:34:54;17.02;;;6.30;;
16320;SDS011;8269;50.990;4.494;2022-10-30T13:37:48;17.13;;;6.65;;
16320;SDS011;8269;50.990;4.494;2022-10-30T13:43:36;15.35;;;6.28;;
16320;SDS011;8269;50.990;4.494;2022-10-30T13:49:12;14.23;;;6.35;;
16320;SDS011;8269;50.990;4.494;2022-10-30T13:51:48;16.73;;;6.63;;
16320;SDS011;8269;50.990;4.494;2022-10-30T13:58:07;14.75;;;6.82;;
16320;SDS011;8269;50.990;4.494;2022-10-30T14:00:12;12.27;;;6.60;;
16320;SDS011;8269;50.990;4.494;2022-10-30T14:05:25;13.50;;;6.28;;
16320;SDS011;8269;50.990;4.494;2022-10-30T14:10:53;20.02;;;6.55;;
16320;SDS011;8269;50.990;4.494;2022-10-30T14:16:29;16.13;;;6.30;;
16320;SDS011;8269;50.990;4.494;2022-10-30T14:19:02;17.95;;;6.43;;
16320;SDS011;8269;50.990;4.494;2022-10-30T14:21:40;17.92;;;6.50;;
16320;SDS011;8269;50.990;4.494;2022-10-30T14:24:26;13.45;;;6.05;;
16320;SDS011;8269;50.990;4.494;2022-10-30T14:29:28;14.02;;;6.20;;
16320;SDS011;8269;50.990;4.494;2022-10-30T14:31:57;16.00;;;6.55;;
16320;SDS011;8269;50.990;4.494;2022-10-30T14:37:10;17.23;;;7.00;;
16320;SDS011;8269;50.990;4.494;2022-10-30T14:53:15;16.67;;;6.85;;
16320;SDS011;8269;50.990;4.494;2022-10-30T14:58:24;19.10;;;8.00;;
16320;SDS011;8269;50.990;4.494;2022-10-30T15:04:06;20.48;;;8.13;;
16320;SDS011;8269;50.990;4.494;2022-10-30T15:15:16;22.05;;;9.63;;
16320;SDS011;8269;50.990;4.494;2022-10-30T15:17:46;17.15;;;8.73;;
16320;SDS011;8269;50.990;4.494;2022-10-30T15:22:49;15.77;;;8.90;;
16320;SDS011;8269;50.990;4.494;2022-10-30T15:25:25;16.45;;;8.70;;
16320;SDS011;8269;50.990;4.494;2022-10-30T15:27:56;18.75;;;9.00;;
16320;SDS011;8269;50.990;4.494;2022-10-30T15:30:24;17.77;;;9.45;;
16320;SDS011;8269;50.990;4.494;2022-10-30T15:32:51;17.52;;;9.52;;
16320;SDS011;8269;50.990;4.494;2022-10-30T15:38:21;19.20;;;9.93;;
16320;SDS011;8269;50.990;4.494;2022-10-30T15:40:40;19.40;;;9.63;;
16320;SDS011;8269;50.990;4.494;2022-10-30T15:43:06;18.02;;;9.45;;
16320;SDS011;8269;50.990;4.494;2022-10-30T15:45:40;18.85;;;9.57;;
16320;SDS011;8269;50.990;4.494;2022-10-30T15:50:58;17.17;;;9.43;;
16320;SDS011;8269;50.990;4.494;2022-10-30T15:53:50;19.20;;;10.57;;
16320;SDS011;8269;50.990;4.494;2022-10-30T15:56:40;22.27;;;10.48;;
16320;SDS011;8269;50.990;4.494;2022-10-30T16:02:00;19.27;;;10.55;;
16320;SDS011;8269;50.990;4.494;2022-10-30T16:04:30;18.17;;;10.43;;
16320;SDS011;8269;50.990;4.494;2022-10-30T16:07:00;16.05;;;9.75;;
16320;SDS011;8269;50.990;4.494;2022-10-30T16:09:28;19.40;;;10.52;;
16320;SDS011;8269;50.990;4.494;2022-10-30T16:11:55;14.93;;;9.50;;
16320;SDS011;8269;50.990;4.494;2022-10-30T16:14:23;16.67;;;9.63;;
16320;SDS011;8269;50.990;4.494;2022-10-30T16:16:51;15.20;;;9.82;;
16320;SDS011;8269;50.990;4.494;2022-10-30T16:19:28;19.70;;;9.95;;
16320;SDS011;8269;50.990;4.494;2022-10-30T16:21:58;20.17;;;9.50;;
16320;SDS011;8269;50.990;4.494;2022-10-30T16:24:30;16.85;;;9.52;;
16320;SDS011;8269;50.990;4.494;2022-10-30T16:27:05;19.75;;;9.68;;
16320;SDS011;8269;50.990;4.494;2022-10-30T16:29:38;15.07;;;8.32;;
16320;SDS011;8269;50.990;4.494;2022-10-30T16:32:05;16.23;;;7.57;;
16320;SDS011;8269;50.990;4.494;2022-10-30T16:34:39;19.08;;;6.50;;
16320;SDS011;8269;50.990;4.494;2022-10-30T16:37:09;13.70;;;6.47;;
16320;SDS011;8269;50.990;4.494;2022-10-30T16:39:41;14.50;;;5.78;;
16320;SDS011;8269;50.990;4.494;2022-10-30T16:42:17;15.48;;;6.35;;
16320;SDS011;8269;50.990;4.494;2022-10-30T16:44:47;13.20;;;6.18;;
16320;SDS011;8269;50.990;4.494;2022-10-30T16:49:45;15.13;;;5.82;;
16320;SDS011;8269;50.990;4.494;2022-10-30T16:52:15;17.52;;;7.00;;
16320;SDS011;8269;50.990;4.494;2022-10-30T16:54:45;12.88;;;6.72;;
16320;SDS011;8269;50.990;4.494;2022-10-30T16:57:18;14.57;;;7.60;;
16320;SDS011;8269;50.990;4.494;2022-10-30T16:59:48;14.68;;;6.78;;
16320;SDS011;8269;50.990;4.494;2022-10-30T17:02:18;13.75;;;5.97;;
16320;SDS011;8269;50.990;4.494;2022-10-30T17:04:46;13.90;;;6.18;;
16320;SDS011;8269;50.990;4.494;2022-10-30T17:07:21;20.38;;;8.38;;
16320;SDS011;8269;50.990;4.494;2022-10-30T17:09:51;18.30;;;10.57;;
16320;SDS011;8269;50.990;4.494;2022-10-30T17:12:21;16.90;;;6.80;;
16320;SDS011;8269;50.990;4.494;2022-10-30T17:14:49;15.65;;;6.47;;
16320;SDS011;8269;50.990;4.494;2022-10-30T17:17:19;13.13;;;6.78;;
16320;SDS011;8269;50.990;4.494;2022-10-30T17:19:46;14.63;;;6.30;;
16320;SDS011;8269;50.990;4.494;2022-10-30T17:22:14;16.25;;;7.32;;
16320;SDS011;8269;50.990;4.494;2022-10-30T17:24:43;15.20;;;7.15;;
16320;SDS011;8269;50.990;4.494;2022-10-30T17:27:26;16.08;;;7.45;;
16320;SDS011;8269;50.990;4.494;2022-10-30T17:29:52;17.02;;;8.20;;
16320;SDS011;8269;50.990;4.494;2022-10-30T17:32:22;17.40;;;8.63;;
16320;SDS011;8269;50.990;4.494;2022-10-30T17:37:36;14.35;;;10.10;;
16320;SDS011;8269;50.990;4.494;2022-10-30T17:40:01;18.52;;;9.45;;